Time;durP1;ratioP1;P1;durP2;ratioP2;P2;SDS_P1;SDS_P2;PMS_P1;PMS_P2;Temp;Humidity;BMP_temperature;BMP_pressure;BME280_temperature;BME280_humidity;BME280_pressure;Samples;Min_cycle;Max_cycle;Signal;HPM_P1;HPM_P2
2021/04/11 00:01:14;;;;;;;;;;;;;;;4.11;75.47;102353.39;1936495;74;20585;-77
2021/04/11 00:03:42;;;;;;;;;;;;;;;4.03;75.79;102358.61;1936315;74;20141;-78
2021/04/11 00:06:10;;;;;;;;;;;;;;;3.96;76.09;102356.97;1936081;74;20133;-77
2021/04/11 00:08:38;;;;;;;;;;;;;;;3.87;76.38;102358.37;1936278;74;20205;-77
2021/04/11 00:11:07;;;;;;;;;;;;;;;3.82;76.66;102359.30;1936318;74;20482;-77
2021/04/11 00:13:37;;;;;;;;;;;;;;;3.76;77.02;102361.93;1936297;74;20141;-77
2021/04/11 00:16:06;;;;;;;;;;;;;;;3.72;77.33;102358.55;1936365;74;20475;-77
2021/04/11 00:18:34;;;;;;;;;;;;;;;3.67;77.54;102357.30;1936162;74;20503;-77
2021/04/11 00:21:03;;;;;;;;;;;;;;;3.60;77.65;102362.53;1936301;74;20122;-77
2021/04/11 00:23:32;;;;;;;;;;;;;;;3.56;77.83;102360.42;1936358;74;21321;-77
2021/04/11 00:26:00;;;;;;;;;;;;;;;3.51;77.98;102358.31;1936212;74;20101;-77
2021/04/11 00:28:27;;;;;;;;;;;;;;;3.47;78.02;102355.81;1936243;74;20102;-77
2021/04/11 00:30:56;;;;;;;;;;;;;;;3.42;78.27;102354.98;1936259;74;20596;-78
2021/04/11 00:33:31;;;;;;;;;;;;;;;3.41;78.52;102354.59;1936305;74;20233;-77
2021/04/11 00:36:01;;;;;;;;;;;;;;;3.38;78.66;102352.06;1936157;74;21180;-77
2021/04/11 00:38:29;;;;;;;;;;;;;;;3.37;78.88;102355.48;1936766;74;20153;-77
2021/04/11 00:40:59;;;;;;;;;;;;;;;3.34;79.26;102355.08;1936335;74;20133;-77
2021/04/11 00:43:28;;;;;;;;;;;;;;;3.31;79.39;102361.95;1936372;74;20556;-77
2021/04/11 00:46:22;;;;;;;;;;;;;;;3.26;79.54;102364.97;1908194;74;20145;-77
2021/04/11 00:48:50;;;;;;;;;;;;;;;3.19;79.93;102361.64;1936239;74;21348;-77
2021/04/11 00:51:22;;;;;;;;;;;;;;;3.13;80.39;102364.23;1936318;74;20168;-77
2021/04/11 00:53:50;;;;;;;;;;;;;;;3.11;80.72;102367.25;1936288;74;20121;-77
2021/04/11 00:56:19;;;;;;;;;;;;;;;3.10;80.75;102366.39;1936503;74;20169;-77
2021/04/11 00:58:47;;;;;;;;;;;;;;;3.04;80.70;102367.73;1936324;74;20172;-77
2021/04/11 01:01:15;;;;;;;;;;;;;;;2.94;80.68;102366.52;1908586;74;21194;-77
2021/04/11 01:03:43;;;;;;;;;;;;;;;2.84;81.00;102368.75;1936287;74;20141;-77
2021/04/11 01:06:14;;;;;;;;;;;;;;;2.80;81.56;102370.91;1936359;74;20482;-77
2021/04/11 01:08:43;;;;;;;;;;;;;;;2.77;81.84;102368.38;1936332;74;20122;-77
2021/04/11 01:11:16;;;;;;;;;;;;;;;2.75;82.21;102369.64;1936353;74;20102;-77
2021/04/11 01:13:53;;;;;;;;;;;;;;;2.77;82.36;102370.93;1936510;74;20547;-77
2021/04/11 01:16:20;;;;;;;;;;;;;;;2.76;82.46;102370.50;1908018;74;20635;-77
2021/04/11 01:18:49;;;;;;;;;;;;;;;2.75;82.92;102374.77;1936435;74;20184;-76
2021/04/11 01:21:22;;;;;;;;;;;;;;;2.73;82.72;102374.37;1936553;74;20578;-77
2021/04/11 01:23:56;;;;;;;;;;;;;;;2.70;82.58;102370.12;1936272;74;20205;-77
2021/04/11 01:26:24;;;;;;;;;;;;;;;2.66;82.68;102369.70;1936352;74;21178;-77
2021/04/11 01:28:52;;;;;;;;;;;;;;;2.63;83.03;102376.99;1936336;74;20644;-77
2021/04/11 01:31:20;;;;;;;;;;;;;;;2.64;83.35;102374.00;1879482;74;20502;-77
2021/04/11 01:33:52;;;;;;;;;;;;;;;2.68;83.50;102373.56;1936324;74;20412;-77
2021/04/11 01:36:22;;;;;;;;;;;;;;;2.72;83.69;102382.91;1936308;74;20149;-77
2021/04/11 01:38:51;;;;;;;;;;;;;;;2.74;83.69;102385.91;1936468;74;20600;-77
2021/04/11 01:41:35;;;;;;;;;;;;;;;2.74;83.59;102385.05;1936296;74;20121;-77
2021/04/11 01:44:03;;;;;;;;;;;;;;;2.73;83.65;102388.04;1936049;74;20209;-77
2021/04/11 01:46:32;;;;;;;;;;;;;;;2.75;83.73;102387.59;1908361;74;20511;-78
2021/04/11 01:49:00;;;;;;;;;;;;;;;2.77;83.67;102386.31;1936454;74;20149;-78
2021/04/11 01:51:31;;;;;;;;;;;;;;;2.77;83.47;102387.17;1936388;74;22104;-78
2021/04/11 01:54:00;;;;;;;;;;;;;;;2.77;83.52;102383.75;1936448;74;20157;-78
2021/04/11 01:56:30;;;;;;;;;;;;;;;2.78;83.70;102381.16;1936607;74;20224;-78
2021/04/11 01:59:00;;;;;;;;;;;;;;;2.77;84.05;102385.03;1936751;74;20186;-77
2021/04/11 02:01:31;;;;;;;;;;;;;;;2.76;84.49;102383.31;1936317;74;20137;-77
2021/04/11 02:04:02;;;;;;;;;;;;;;;2.72;84.91;102379.92;1936389;74;21177;-77
2021/04/11 02:06:32;;;;;;;;;;;;;;;2.72;85.47;102383.77;1936142;74;20213;-77
2021/04/11 02:09:11;;;;;;;;;;;;;;;2.70;85.85;102384.22;1935577;74;21210;-77
2021/04/11 02:11:44;;;;;;;;;;;;;;;2.69;86.26;102387.62;1934391;74;20145;-76
2021/04/11 02:14:12;;;;;;;;;;;;;;;2.66;86.49;102385.94;1936134;74;20127;-77
2021/04/11 02:16:41;;;;;;;;;;;;;;;2.63;86.84;102392.37;1935913;74;20129;-76
2021/04/11 02:19:18;;;;;;;;;;;;;;;2.58;87.16;102390.70;1935793;74;20287;-77
2021/04/11 02:21:49;;;;;;;;;;;;;;;2.53;87.34;102391.99;1905317;74;20122;-77
2021/04/11 02:24:17;;;;;;;;;;;;;;;2.49;87.72;102391.58;1936011;74;20566;-77
2021/04/11 02:26:46;;;;;;;;;;;;;;;2.46;87.96;102390.31;1935912;74;20132;-78
2021/04/11 02:29:16;;;;;;;;;;;;;;;2.43;88.05;102391.61;1936142;74;22172;-78
2021/04/11 02:31:46;;;;;;;;;;;;;;;2.37;88.25;102391.65;1935915;74;20480;-77
2021/04/11 02:34:24;;;;;;;;;;;;;;;2.29;88.38;102398.95;1935311;74;20126;-77
2021/04/11 02:36:55;;;;;;;;;;;;;;;2.21;88.60;102394.28;1935958;74;20121;-77
2021/04/11 02:39:26;;;;;;;;;;;;;;;2.18;88.96;102396.43;1935284;74;20130;-77
2021/04/11 02:41:54;;;;;;;;;;;;;;;2.16;89.32;102399.44;1936045;74;20514;-77
2021/04/11 02:44:24;;;;;;;;;;;;;;;2.13;89.49;102401.59;1935846;74;20217;-77
2021/04/11 02:46:52;;;;;;;;;;;;;;;2.11;89.68;102399.86;1877159;74;20126;-77
2021/04/11 02:49:21;;;;;;;;;;;;;;;2.06;89.93;102399.89;1935857;74;20129;-77
2021/04/11 02:51:50;;;;;;;;;;;;;;;2.04;90.15;102400.77;1936050;74;20105;-77
2021/04/11 02:54:20;;;;;;;;;;;;;;;2.03;90.31;102400.33;1935946;74;21170;-77
2021/04/11 02:56:50;;;;;;;;;;;;;;;2.00;90.54;102396.08;1935768;74;20260;-77
2021/04/11 02:59:20;;;;;;;;;;;;;;;2.00;90.91;102399.06;1935292;74;20142;-77
2021/04/11 03:01:50;;;;;;;;;;;;;;;1.99;91.25;102390.52;1935818;74;20196;-77
2021/04/11 03:04:21;;;;;;;;;;;;;;;1.99;91.56;102398.20;1936248;74;20134;-77
2021/04/11 03:07:05;;;;;;;;;;;;;;;1.99;91.84;102396.06;1908157;74;20109;-77
2021/04/11 03:09:40;;;;;;;;;;;;;;;1.98;92.04;102401.61;1908615;74;20125;-78
2021/04/11 03:12:10;;;;;;;;;;;;;;;1.97;92.21;102405.05;1936459;74;20148;-78
2021/04/11 03:14:39;;;;;;;;;;;;;;;1.97;92.54;102405.05;1908054;74;20122;-76
2021/04/11 03:17:14;;;;;;;;;;;;;;;1.97;92.74;102405.47;1907890;74;20177;-76
2021/04/11 03:19:45;;;;;;;;;;;;;;;1.95;92.97;102409.30;1936462;74;21356;-77
2021/04/11 03:22:15;;;;;;;;;;;;;;;1.94;93.23;102403.78;1936683;74;20549;-78
2021/04/11 03:24:43;;;;;;;;;;;;;;;1.97;93.42;102411.45;1936460;74;20217;-78
2021/04/11 03:27:16;;;;;;;;;;;;;;;1.98;93.56;102412.28;1936212;74;20102;-77
2021/04/11 03:29:49;;;;;;;;;;;;;;;1.97;93.72;102412.73;1936386;74;20141;-77
2021/04/11 03:32:24;;;;;;;;;;;;;;;1.95;93.89;102414.42;1936677;74;21599;-77
2021/04/11 03:34:53;;;;;;;;;;;;;;;1.95;94.04;102409.72;1937783;74;20117;-78
2021/04/11 03:37:21;;;;;;;;;;;;;;;1.94;94.18;102415.30;1937663;74;20130;-78
2021/04/11 03:39:50;;;;;;;;;;;;;;;1.92;93.87;102413.58;1937798;74;20153;-78
2021/04/11 03:42:21;;;;;;;;;;;;;;;1.88;93.80;102420.41;1936993;74;20181;-77
2021/04/11 03:44:55;;;;;;;;;;;;;;;1.85;93.99;102416.58;1937630;74;21923;-78
2021/04/11 03:47:36;;;;;;;;;;;;;;;1.85;94.22;102424.71;1936847;74;20101;-78
2021/04/11 03:50:10;;;;;;;;;;;;;;;1.84;94.28;102426.41;1937200;74;20126;-76
2021/04/11 03:52:58;;;;;;;;;;;;;;;1.83;94.40;102432.38;1935118;74;20129;-76
2021/04/11 03:55:27;;;;;;;;;;;;;;;1.88;94.61;102432.38;1936726;74;20121;-76
2021/04/11 03:57:57;;;;;;;;;;;;;;;1.89;94.66;102429.80;1936549;74;21181;-77
2021/04/11 04:00:35;;;;;;;;;;;;;;;1.92;94.76;102437.47;1933187;74;20148;-77
2021/04/11 04:03:10;;;;;;;;;;;;;;;1.95;94.77;102437.89;1935790;74;20173;-76
2021/04/11 04:05:38;;;;;;;;;;;;;;;1.98;94.78;102440.02;1935860;74;20216;-77
2021/04/11 04:08:08;;;;;;;;;;;;;;;2.00;94.75;102440.88;1936059;74;20121;-77
2021/04/11 04:10:45;;;;;;;;;;;;;;;2.03;94.66;102442.16;1935883;74;21171;-77
2021/04/11 04:13:55;;;;;;;;;;;;;;;2.06;94.60;102442.14;1906210;74;20126;-77
2021/04/11 04:16:46;;;;;;;;;;;;;;;2.08;94.46;102442.98;1936385;74;20483;-77
2021/04/11 04:19:30;;;;;;;;;;;;;;;2.12;94.34;102448.53;1936305;74;20553;-76
2021/04/11 04:22:07;;;;;;;;;;;;;;;2.13;94.29;102448.11;1935972;74;20136;-77
2021/04/11 04:25:00;;;;;;;;;;;;;;;2.19;94.38;102449.78;1935791;74;21252;-77
2021/04/11 04:27:39;;;;;;;;;;;;;;;2.23;94.39;102447.65;1934255;74;20204;-77
2021/04/11 04:30:27;;;;;;;;;;;;;;;2.27;94.36;102446.76;1905828;74;20197;-77
2021/04/11 04:33:22;;;;;;;;;;;;;;;2.32;94.54;102453.59;1935568;74;20145;-76
2021/04/11 04:36:16;;;;;;;;;;;;;;;2.40;94.60;102458.24;1935738;74;20121;-76
2021/04/11 04:39:05;;;;;;;;;;;;;;;2.47;94.55;102462.49;1935828;74;21469;-76
2021/04/11 04:41:43;;;;;;;;;;;;;;;2.53;94.37;102466.31;1936118;74;20217;-76
2021/04/11 04:44:25;;;;;;;;;;;;;;;2.64;94.19;102471.40;1935886;74;20126;-76
2021/04/11 04:47:11;;;;;;;;;;;;;;;2.71;93.80;102467.09;1935836;74;20122;-76
2021/04/11 04:49:46;;;;;;;;;;;;;;;2.77;93.46;102475.61;1934455;74;20156;-76
2021/04/11 04:52:21;;;;;;;;;;;;;;;2.84;92.98;102476.44;1936012;74;21185;-77
2021/04/11 04:55:07;;;;;;;;;;;;;;;2.88;92.47;102475.11;1930153;74;20567;-76
2021/04/11 04:57:55;;;;;;;;;;;;;;;2.94;92.00;102477.63;1936014;74;20223;-77
2021/04/11 05:00:33;;;;;;;;;;;;;;;3.04;91.54;102481.86;1935746;74;20216;-77
2021/04/11 05:03:21;;;;;;;;;;;;;;;3.14;90.93;102478.80;1934826;74;20219;-77
2021/04/11 05:06:06;;;;;;;;;;;;;;;3.21;90.28;102481.75;1934547;74;21431;-78
2021/04/11 05:08:48;;;;;;;;;;;;;;;3.28;89.50;102481.28;1905634;74;20121;-77
2021/04/11 05:11:29;;;;;;;;;;;;;;;3.32;88.87;102479.95;1936346;74;20121;-78
2021/04/11 05:14:00;;;;;;;;;;;;;;;3.39;88.27;102480.76;1936268;74;20786;-76
2021/04/11 05:16:41;;;;;;;;;;;;;;;3.46;87.62;102481.99;1936284;74;20169;-77
2021/04/11 05:19:17;;;;;;;;;;;;;;;3.55;86.95;102479.35;1936242;74;21182;-77
2021/04/11 05:21:50;;;;;;;;;;;;;;;3.64;86.42;102483.55;1934554;74;20126;-77
2021/04/11 05:24:20;;;;;;;;;;;;;;;3.73;85.81;102485.60;1936324;74;20216;-77
2021/04/11 05:26:52;;;;;;;;;;;;;;;3.82;85.01;102476.12;1936097;74;20149;-77
2021/04/11 05:29:24;;;;;;;;;;;;;;;3.89;84.14;102475.22;1934601;74;20196;-77
2021/04/11 05:31:52;;;;;;;;;;;;;;;3.98;83.22;102479.83;1936057;74;21175;-77
2021/04/11 05:34:20;;;;;;;;;;;;;;;4.05;82.65;102474.20;1935914;74;20125;-77
2021/04/11 05:36:54;;;;;;;;;;;;;;;4.18;81.81;102477.06;1936235;74;20486;-77
2021/04/11 05:39:43;;;;;;;;;;;;;;;4.31;80.86;102480.34;1936249;74;20126;-77
2021/04/11 05:42:22;;;;;;;;;;;;;;;4.42;80.10;102485.77;1936354;74;20482;-78
2021/04/11 05:44:56;;;;;;;;;;;;;;;4.62;78.55;102485.53;1936324;74;21410;-78
2021/04/11 05:47:28;;;;;;;;;;;;;;;4.74;77.73;102488.80;1935733;74;20129;-77
2021/04/11 05:50:08;;;;;;;;;;;;;;;4.85;77.03;102487.81;1936790;74;20130;-77
2021/04/11 05:52:55;;;;;;;;;;;;;;;4.98;76.32;102494.50;1937070;74;20122;-78
2021/04/11 05:55:24;;;;;;;;;;;;;;;5.10;75.94;102495.18;1938439;74;20236;-79
2021/04/11 05:57:56;;;;;;;;;;;;;;;5.24;75.52;102498.38;1936240;74;21181;-78
2021/04/11 06:00:30;;;;;;;;;;;;;;;5.33;75.24;102500.81;1935772;74;20121;-78
2021/04/11 06:03:00;;;;;;;;;;;;;;;5.44;74.78;102493.38;1935020;74;20125;-79
2021/04/11 06:05:44;;;;;;;;;;;;;;;5.55;73.94;102494.06;1936001;74;20193;-79
2021/04/11 06:08:18;;;;;;;;;;;;;;;5.66;72.97;102494.73;1936297;74;20121;-79
2021/04/11 06:11:00;;;;;;;;;;;;;;;5.83;72.14;102490.16;1936117;74;21225;-78
2021/04/11 06:13:35;;;;;;;;;;;;;;;5.99;71.51;102495.48;1936133;74;20200;-79
2021/04/11 06:16:06;;;;;;;;;;;;;;;6.15;70.68;102502.50;1894024;74;20126;-78
2021/04/11 06:18:34;;;;;;;;;;;;;;;6.26;70.44;102504.42;1935922;74;20121;-77
2021/04/11 06:21:03;;;;;;;;;;;;;;;6.33;70.14;102508.16;1935967;74;20515;-77
2021/04/11 06:23:40;;;;;;;;;;;;;;;6.43;69.47;102505.39;1937540;74;22230;-77
2021/04/11 06:26:15;;;;;;;;;;;;;;;6.55;68.88;102512.88;1938154;74;20129;-77
2021/04/11 06:28:49;;;;;;;;;;;;;;;6.68;67.85;102516.48;1937518;74;20122;-78
2021/04/11 06:31:23;;;;;;;;;;;;;;;6.83;67.13;102511.00;1936442;74;20205;-77
2021/04/11 06:34:12;;;;;;;;;;;;;;;6.98;65.87;102512.42;1937148;74;20160;-78
2021/04/11 06:36:41;;;;;;;;;;;;;;;7.09;64.58;102513.45;1908522;74;21184;-77
2021/04/11 06:39:21;;;;;;;;;;;;;;;7.21;63.38;102517.08;1938624;74;20231;-78
2021/04/11 06:42:12;;;;;;;;;;;;;;;7.28;62.82;102516.03;1937555;74;20256;-78
2021/04/11 06:44:58;;;;;;;;;;;;;;;7.39;60.48;102513.63;1935872;74;20109;-78
2021/04/11 06:47:58;;;;;;;;;;;;;;;7.49;57.94;102514.70;1938378;74;20122;-78
2021/04/11 06:50:30;;;;;;;;;;;;;;;7.61;57.07;102510.52;1936595;74;21360;-78
2021/04/11 06:53:28;;;;;;;;;;;;;;;7.83;54.41;102519.00;1936240;74;20122;-77
2021/04/11 06:56:21;;;;;;;;;;;;;;;7.93;53.34;102513.16;1937149;74;20125;-77
2021/04/11 06:59:15;;;;;;;;;;;;;;;8.09;52.24;102515.75;1936516;74;20610;-78
2021/04/11 07:02:06;;;;;;;;;;;;;;;8.20;51.88;102518.06;1936551;74;20502;-77
2021/04/11 07:04:57;;;;;;;;;;;;;;;8.31;50.13;102518.20;1936241;74;21322;-77
2021/04/11 07:07:51;;;;;;;;;;;;;;;8.41;48.42;102520.95;1935977;74;20118;-78
2021/04/11 07:10:29;;;;;;;;;;;;;;;8.54;47.78;102525.34;1936557;74;20216;-78
2021/04/11 07:13:06;;;;;;;;;;;;;;;8.65;46.83;102526.30;1935895;74;20152;-78
2021/04/11 07:15:56;;;;;;;;;;;;;;;8.73;44.20;102526.95;1900321;74;20137;-77
2021/04/11 07:18:42;;;;;;;;;;;;;;;8.81;44.67;102529.71;1936096;74;21349;-76
2021/04/11 07:21:26;;;;;;;;;;;;;;;8.93;43.87;102528.53;1935842;73;20208;-76
2021/04/11 07:24:04;;;;;;;;;;;;;;;9.08;42.97;102533.69;1921892;74;20471;-76
2021/04/11 07:26:44;;;;;;;;;;;;;;;9.20;43.11;102530.27;1935892;74;20539;-76
2021/04/11 07:29:49;;;;;;;;;;;;;;;9.26;42.13;102527.94;1900242;74;20209;-76
2021/04/11 07:32:22;;;;;;;;;;;;;;;9.34;42.80;102529.41;1935928;74;21183;-77
2021/04/11 07:35:06;;;;;;;;;;;;;;;9.43;42.25;102533.45;1936023;74;20102;-80
2021/04/11 07:37:44;;;;;;;;;;;;;;;9.45;42.44;102526.02;1935889;74;20499;-80
2021/04/11 07:40:19;;;;;;;;;;;;;;;9.50;42.57;102520.27;1937420;74;20137;-79
2021/04/11 07:42:55;;;;;;;;;;;;;;;9.58;42.32;102518.70;1938218;72;20180;-78
2021/04/11 07:45:49;;;;;;;;;;;;;;;9.69;40.42;102520.95;1891223;74;21185;-78
2021/04/11 07:48:38;;;;;;;;;;;;;;;9.82;40.18;102507.98;1939052;74;20211;-77
2021/04/11 07:51:31;;;;;;;;;;;;;;;9.90;39.99;102512.01;1936259;74;20110;-78
2021/04/11 07:54:23;;;;;;;;;;;;;;;9.99;40.13;102510.84;1936436;74;20489;-79
2021/04/11 07:56:58;;;;;;;;;;;;;;;10.10;40.05;102508.30;1936634;74;20113;-80
2021/04/11 07:59:39;;;;;;;;;;;;;;;10.23;39.65;102513.08;1936034;73;20133;-77
2021/04/11 08:02:22;;;;;;;;;;;;;;;10.29;37.85;102507.67;1908998;74;20173;-78
2021/04/11 08:05:14;;;;;;;;;;;;;;;10.35;38.01;102502.27;1936495;74;20177;-78
2021/04/11 08:07:57;;;;;;;;;;;;;;;10.44;37.53;102507.12;1936755;74;20503;-79
2021/04/11 08:10:45;;;;;;;;;;;;;;;10.51;37.58;102508.15;1936344;74;20476;-79
2021/04/11 08:13:33;;;;;;;;;;;;;;;10.62;37.84;102506.47;1935849;74;21188;-79
2021/04/11 08:16:06;;;;;;;;;;;;;;;10.75;38.42;102510.75;1936048;74;20476;-83
2021/04/11 08:18:50;;;;;;;;;;;;;;;10.88;38.12;102502.90;1938485;74;20107;-79
2021/04/11 08:21:31;;;;;;;;;;;;;;;11.01;37.33;102498.45;1936998;74;20288;-80
2021/04/11 08:24:29;;;;;;;;;;;;;;;11.16;36.96;102499.62;1937160;74;20553;-78
2021/04/11 08:27:18;;;;;;;;;;;;;;;11.28;35.68;102496.54;1936135;74;21087;-82
2021/04/11 08:30:15;;;;;;;;;;;;;;;11.38;34.93;102490.52;1937042;74;20113;-79
2021/04/11 08:33:04;;;;;;;;;;;;;;;11.44;35.20;102485.92;1936743;74;20160;-79
2021/04/11 08:35:49;;;;;;;;;;;;;;;11.57;35.31;102491.46;1933187;74;20129;-79
2021/04/11 08:38:52;;;;;;;;;;;;;;;11.66;34.77;102481.98;1937553;74;20130;-80
2021/04/11 08:41:28;;;;;;;;;;;;;;;11.72;34.80;102484.35;1937450;74;21951;-81
2021/04/11 08:43:59;;;;;;;;;;;;;;;11.81;34.92;102480.51;1936395;74;20105;-81
2021/04/11 08:46:34;;;;;;;;;;;;;;;11.85;35.27;102482.92;1936402;74;20487;-80
2021/04/11 08:49:17;;;;;;;;;;;;;;;11.97;34.31;102481.09;1936805;74;20863;-81
2021/04/11 08:52:02;;;;;;;;;;;;;;;12.12;34.62;102476.53;1936651;74;20228;-77
2021/04/11 08:54:33;;;;;;;;;;;;;;;12.25;33.88;102475.56;1936645;74;21176;-81
2021/04/11 08:57:22;;;;;;;;;;;;;;;12.36;33.70;102479.82;1937925;74;20137;-79
2021/04/11 09:00:08;;;;;;;;;;;;;;;12.46;33.58;102471.98;1936787;74;20153;-81
2021/04/11 09:03:02;;;;;;;;;;;;;;;12.55;33.61;102466.81;1935672;73;20137;-78
2021/04/11 09:05:56;;;;;;;;;;;;;;;12.68;33.57;102468.80;1936510;74;20213;-81
2021/04/11 09:08:28;;;;;;;;;;;;;;;12.78;32.13;102465.30;1937669;74;21167;-79
2021/04/11 09:11:24;;;;;;;;;;;;;;;12.83;32.62;102462.02;1936635;74;20126;-78
2021/04/11 09:14:01;;;;;;;;;;;;;;;12.91;33.56;102457.76;1939253;73;20153;-81
2021/04/11 09:16:49;;;;;;;;;;;;;;;13.07;33.67;102450.91;1937683;74;20125;-80
2021/04/11 09:19:35;;;;;;;;;;;;;;;13.24;33.34;102446.58;1936364;73;20141;-80
2021/04/11 09:22:13;;;;;;;;;;;;;;;13.36;32.44;102446.45;1936674;74;21180;-79
2021/04/11 09:25:01;;;;;;;;;;;;;;;13.43;32.98;102445.70;1937548;74;20575;-79
2021/04/11 09:27:42;;;;;;;;;;;;;;;13.53;33.11;102437.31;1937768;74;20184;-78
2021/04/11 09:30:31;;;;;;;;;;;;;;;13.64;32.26;102432.88;1896730;74;20208;-79
2021/04/11 09:33:31;;;;;;;;;;;;;;;13.67;31.61;102433.56;1936888;74;20148;-81
2021/04/11 09:36:05;;;;;;;;;;;;;;;13.76;32.10;102433.09;1937429;74;20149;-79
2021/04/11 09:38:49;;;;;;;;;;;;;;;13.87;31.53;102433.00;1936323;73;20141;-73
2021/04/11 09:41:39;;;;;;;;;;;;;;;13.96;31.73;102429.45;1936569;73;20133;-81
2021/04/11 09:44:29;;;;;;;;;;;;;;;14.03;30.72;102424.30;1936576;73;20133;-81
2021/04/11 09:47:17;;;;;;;;;;;;;;;14.01;31.38;102420.06;1936583;73;20201;-80
2021/04/11 09:50:00;;;;;;;;;;;;;;;14.20;31.89;102424.23;1936571;74;21177;-80
2021/04/11 09:52:53;;;;;;;;;;;;;;;15.19;28.45;102419.61;1928333;74;20468;-77
2021/04/11 09:55:43;;;;;;;;;;;;;;;16.46;28.01;102426.80;1936109;74;20483;-79
2021/04/11 09:58:28;;;;;;;;;;;;;;;17.73;24.01;102421.06;1935922;74;20110;-77
2021/04/11 10:01:17;;;;;;;;;;;;;;;18.60;24.46;102418.92;1937328;74;20216;-80
2021/04/11 10:04:00;;;;;;;;;;;;;;;19.53;22.67;102407.11;1937400;74;21167;-80
2021/04/11 10:06:37;;;;;;;;;;;;;;;20.39;22.91;102413.52;1936385;74;20197;-79
2021/04/11 10:09:29;;;;;;;;;;;;;;;21.34;21.06;102402.20;1936408;74;20118;-78
2021/04/11 10:12:10;;;;;;;;;;;;;;;22.29;20.75;102405.45;1937284;74;20129;-80
2021/04/11 10:14:56;;;;;;;;;;;;;;;23.50;19.84;102403.19;1937324;74;20122;-79
2021/04/11 10:17:44;;;;;;;;;;;;;;;24.45;18.99;102402.46;1937598;74;21346;-81
2021/04/11 10:20:24;;;;;;;;;;;;;;;25.65;17.55;102401.89;1937593;74;20114;-79
2021/04/11 10:22:59;;;;;;;;;;;;;;;26.05;17.26;102398.59;1937253;74;20125;-82
2021/04/11 10:25:41;;;;;;;;;;;;;;;26.05;16.77;102401.73;1938430;74;20122;-80
2021/04/11 10:28:25;;;;;;;;;;;;;;;25.95;16.32;102397.03;1937562;74;20180;-79
2021/04/11 10:31:10;;;;;;;;;;;;;;;26.21;16.52;102393.85;1937556;74;22025;-82
2021/04/11 10:33:54;;;;;;;;;;;;;;;26.55;16.56;102390.60;1869559;74;20142;-82
2021/04/11 10:36:34;;;;;;;;;;;;;;;26.69;15.93;102387.80;1937405;74;20514;-81
2021/04/11 10:39:05;;;;;;;;;;;;;;;27.03;15.29;102391.67;1936538;74;20136;-79
2021/04/11 10:41:43;;;;;;;;;;;;;;;27.30;14.54;102390.00;1936450;74;20141;-82
2021/04/11 10:44:20;;;;;;;;;;;;;;;27.65;15.35;102386.13;1937109;74;21184;-80
2021/04/11 10:46:54;;;;;;;;;;;;;;;27.83;14.17;102380.05;1936635;74;20531;-84
2021/04/11 10:49:28;;;;;;;;;;;;;;;27.81;14.00;102378.07;1936742;74;20137;-78
2021/04/11 10:52:18;;;;;;;;;;;;;;;27.94;15.11;102378.85;1937635;74;20204;-83
2021/04/11 10:55:07;;;;;;;;;;;;;;;28.22;14.14;102376.91;1937973;74;20144;-83
2021/04/11 10:57:47;;;;;;;;;;;;;;;27.97;13.72;102372.67;1937531;74;21237;-80
2021/04/11 11:00:40;;;;;;;;;;;;;;;27.51;14.36;102370.31;1972749;72;20236;-82
2021/04/11 11:03:23;;;;;;;;;;;;;;;27.20;14.81;102376.02;1937705;74;20161;-80
2021/04/11 11:06:00;;;;;;;;;;;;;;;27.35;15.20;102367.16;1937928;74;21182;-83
2021/04/11 11:08:47;;;;;;;;;;;;;;;27.26;14.25;102366.84;1937856;74;20125;-80
2021/04/11 11:11:54;;;;;;;;;;;;;;;27.19;15.02;102365.02;1938454;74;20383;-82
2021/04/11 11:14:41;;;;;;;;;;;;;;;27.07;14.33;102357.88;1936874;74;20145;-80
2021/04/11 11:17:22;;;;;;;;;;;;;;;26.54;14.88;102353.50;1936834;74;20129;-83
2021/04/11 11:20:10;;;;;;;;;;;;;;;26.32;15.24;102358.97;1938039;74;21403;-77
2021/04/11 11:23:01;;;;;;;;;;;;;;;25.98;15.06;102352.33;1937329;74;20129;-83
2021/04/11 11:25:49;;;;;;;;;;;;;;;25.04;15.19;102347.46;1937551;74;20118;-79
2021/04/11 11:28:52;;;;;;;;;;;;;;;24.57;16.58;102345.52;1937424;74;20488;-83
2021/04/11 11:31:26;;;;;;;;;;;;;;;24.81;16.02;102336.95;1939484;74;20102;-81
2021/04/11 11:34:01;;;;;;;;;;;;;;;24.91;17.06;102339.05;1937925;73;21185;-78
2021/04/11 11:36:35;;;;;;;;;;;;;;;25.23;16.69;102329.16;1925826;74;20189;-79
2021/04/11 11:39:28;;;;;;;;;;;;;;;24.78;16.41;102333.76;1936669;74;20203;-77
2021/04/11 11:42:03;;;;;;;;;;;;;;;24.39;16.94;102328.76;1937250;74;20192;-81
2021/04/11 11:44:33;;;;;;;;;;;;;;;24.10;16.65;102331.56;1937035;74;20145;-79
2021/04/11 11:47:16;;;;;;;;;;;;;;;24.13;17.09;102319.36;1936469;74;21116;-76
2021/04/11 11:49:48;;;;;;;;;;;;;;;24.32;17.33;102315.74;1936624;74;20498;-76
2021/04/11 11:52:28;;;;;;;;;;;;;;;24.37;16.38;102312.16;1936567;74;20133;-82
2021/04/11 11:55:00;;;;;;;;;;;;;;;24.89;16.13;102302.50;1936487;74;20150;-76
2021/04/11 11:57:43;;;;;;;;;;;;;;;25.51;17.00;102308.09;1936921;74;20118;-79
2021/04/11 12:00:16;;;;;;;;;;;;;;;25.55;16.66;102303.28;1936890;74;21408;-77
2021/04/11 12:02:50;;;;;;;;;;;;;;;25.14;16.23;102296.37;1936738;74;20102;-78
2021/04/11 12:05:24;;;;;;;;;;;;;;;24.54;17.35;102295.88;1936513;74;20137;-79
2021/04/11 12:08:03;;;;;;;;;;;;;;;24.45;17.17;102302.94;1936945;74;20491;-78
2021/04/11 12:10:34;;;;;;;;;;;;;;;24.73;17.12;102303.67;1932721;74;20506;-77
2021/04/11 12:13:24;;;;;;;;;;;;;;;25.42;16.77;102299.70;1931832;74;21172;-77
2021/04/11 12:16:04;;;;;;;;;;;;;;;26.03;15.23;102295.49;1936044;74;20125;-78
2021/04/11 12:18:38;;;;;;;;;;;;;;;26.48;15.88;102290.27;1936140;74;20209;-79
2021/04/11 12:21:15;;;;;;;;;;;;;;;26.32;15.12;102291.58;1936222;74;20526;-77
2021/04/11 12:23:46;;;;;;;;;;;;;;;26.59;15.46;102293.91;1935890;74;20133;-78
2021/04/11 12:26:17;;;;;;;;;;;;;;;26.87;14.22;102290.47;1936172;74;21636;-79
2021/04/11 12:28:47;;;;;;;;;;;;;;;27.17;14.80;102281.23;1935733;74;20153;-78
2021/04/11 12:31:24;;;;;;;;;;;;;;;27.22;14.26;102275.38;1936004;74;20141;-81
2021/04/11 12:34:07;;;;;;;;;;;;;;;26.78;14.60;102276.27;1881797;74;20122;-82
2021/04/11 12:40:40;;;;;;;;;;;;;;;24.72;16.19;102276.80;1735509;78;21371;-80
2021/04/11 12:43:24;;;;;;;;;;;;;;;23.06;17.03;102275.34;1800521;79;20157;-78
2021/04/11 12:46:27;;;;;;;;;;;;;;;22.46;18.29;102272.53;1838143;78;20124;-76
2021/04/11 12:49:11;;;;;;;;;;;;;;;22.07;18.23;102263.25;1840758;78;20382;-78
2021/04/11 12:51:59;;;;;;;;;;;;;;;21.70;18.37;102262.65;1838666;78;20426;-78
2021/04/11 12:54:42;;;;;;;;;;;;;;;21.61;19.05;102259.82;1838049;78;20805;-81
2021/04/11 12:57:23;;;;;;;;;;;;;;;22.07;19.56;102257.13;1839041;78;20411;-79
2021/04/11 13:00:03;;;;;;;;;;;;;;;22.63;19.20;102254.13;1839242;78;20125;-80
2021/04/11 13:02:47;;;;;;;;;;;;;;;22.74;18.30;102255.84;1840440;77;20152;-79
2021/04/11 13:05:20;;;;;;;;;;;;;;;22.29;18.99;102257.34;1839190;78;20140;-78
2021/04/11 13:08:15;;;;;;;;;;;;;;;22.39;19.60;102247.13;1839321;78;20801;-79
2021/04/11 13:10:53;;;;;;;;;;;;;;;23.11;18.34;102252.75;1839071;78;20128;-79
2021/04/11 13:13:39;;;;;;;;;;;;;;;23.84;17.38;102252.37;1791315;78;20239;-78
2021/04/11 13:16:24;;;;;;;;;;;;;;;24.57;17.27;102243.84;1808276;78;20478;-78
2021/04/11 13:19:21;;;;;;;;;;;;;;;24.62;16.79;102246.36;1837856;78;20599;-77
2021/04/11 13:22:04;;;;;;;;;;;;;;;24.31;16.28;102242.45;1838107;78;22134;-78
2021/04/11 13:24:42;;;;;;;;;;;;;;;24.44;17.02;102241.55;1838101;78;20148;-83
2021/04/11 13:27:32;;;;;;;;;;;;;;;24.75;16.39;102236.66;1838938;78;20161;-83
2021/04/11 13:30:10;;;;;;;;;;;;;;;24.80;16.62;102232.20;1829832;75;20183;-80
2021/04/11 13:33:04;;;;;;;;;;;;;;;24.53;17.16;102227.88;1806452;79;20122;-79
2021/04/11 13:35:42;;;;;;;;;;;;;;;25.00;16.96;102235.02;1804846;79;21208;-80
2021/04/11 13:38:19;;;;;;;;;;;;;;;25.55;15.80;102226.19;1838939;78;20207;-79
2021/04/11 13:40:47;;;;;;;;;;;;;;;25.77;15.72;102228.25;1835316;78;20141;-82
2021/04/11 13:43:31;;;;;;;;;;;;;;;25.58;15.37;102221.88;1822506;79;20145;-82
2021/04/11 13:46:09;;;;;;;;;;;;;;;25.33;15.44;102217.44;1804034;78;20321;-78